sensor_id;sensor_type;location;lat;lon;timestamp;P1;durP1;ratioP1;P2;durP2;ratioP2
37535;SDS011;23379;51.554;6.736;2024-03-08T00:02:35;24.17;;;15.23;;
37535;SDS011;23379;51.554;6.736;2024-03-08T00:05:02;28.02;;;16.35;;
37535;SDS011;23379;51.554;6.736;2024-03-08T00:07:28;27.00;;;16.17;;
37535;SDS011;23379;51.554;6.736;2024-03-08T00:09:53;31.48;;;17.42;;
37535;SDS011;23379;51.554;6.736;2024-03-08T00:12:19;27.58;;;15.88;;
37535;SDS011;23379;51.554;6.736;2024-03-08T00:14:45;27.75;;;16.08;;
37535;SDS011;23379;51.554;6.736;2024-03-08T00:17:10;30.10;;;16.38;;
37535;SDS011;23379;51.554;6.736;2024-03-08T00:19:36;25.73;;;15.73;;
37535;SDS011;23379;51.554;6.736;2024-03-08T00:22:01;31.92;;;17.13;;
37535;SDS011;23379;51.554;6.736;2024-03-08T00:24:27;27.05;;;15.95;;
37535;SDS011;23379;51.554;6.736;2024-03-08T00:26:53;33.17;;;17.52;;
37535;SDS011;23379;51.554;6.736;2024-03-08T00:29:19;27.55;;;16.27;;
37535;SDS011;23379;51.554;6.736;2024-03-08T00:31:44;32.38;;;17.73;;
37535;SDS011;23379;51.554;6.736;2024-03-08T00:34:10;26.77;;;16.13;;
37535;SDS011;23379;51.554;6.736;2024-03-08T00:36:36;26.42;;;15.63;;
37535;SDS011;23379;51.554;6.736;2024-03-08T00:39:02;28.70;;;16.50;;
37535;SDS011;23379;51.554;6.736;2024-03-08T00:41:31;30.50;;;17.23;;
37535;SDS011;23379;51.554;6.736;2024-03-08T00:43:56;29.55;;;17.40;;
37535;SDS011;23379;51.554;6.736;2024-03-08T00:46:22;27.25;;;17.63;;
37535;SDS011;23379;51.554;6.736;2024-03-08T00:48:47;30.05;;;17.58;;
37535;SDS011;23379;51.554;6.736;2024-03-08T00:51:13;36.13;;;16.83;;
37535;SDS011;23379;51.554;6.736;2024-03-08T00:53:40;23.75;;;15.93;;
37535;SDS011;23379;51.554;6.736;2024-03-08T00:56:06;30.55;;;17.48;;
37535;SDS011;23379;51.554;6.736;2024-03-08T00:58:35;30.35;;;17.77;;
37535;SDS011;23379;51.554;6.736;2024-03-08T01:01:01;29.58;;;17.15;;
37535;SDS011;23379;51.554;6.736;2024-03-08T01:03:27;31.60;;;17.25;;
37535;SDS011;23379;51.554;6.736;2024-03-08T01:05:52;32.95;;;17.58;;
37535;SDS011;23379;51.554;6.736;2024-03-08T01:08:17;34.58;;;17.35;;
37535;SDS011;23379;51.554;6.736;2024-03-08T01:10:43;28.50;;;17.35;;
37535;SDS011;23379;51.554;6.736;2024-03-08T01:13:08;29.98;;;17.90;;
37535;SDS011;23379;51.554;6.736;2024-03-08T01:15:34;27.80;;;17.90;;
37535;SDS011;23379;51.554;6.736;2024-03-08T01:18:00;27.20;;;16.95;;
37535;SDS011;23379;51.554;6.736;2024-03-08T01:20:26;31.30;;;18.02;;
37535;SDS011;23379;51.554;6.736;2024-03-08T01:22:52;29.42;;;18.48;;
37535;SDS011;23379;51.554;6.736;2024-03-08T01:25:18;32.53;;;19.05;;
37535;SDS011;23379;51.554;6.736;2024-03-08T01:27:43;30.48;;;19.17;;
37535;SDS011;23379;51.554;6.736;2024-03-08T01:30:08;28.40;;;17.73;;
37535;SDS011;23379;51.554;6.736;2024-03-08T01:32:34;30.80;;;18.80;;
37535;SDS011;23379;51.554;6.736;2024-03-08T01:35:00;28.80;;;17.73;;
37535;SDS011;23379;51.554;6.736;2024-03-08T01:37:25;31.73;;;17.55;;
37535;SDS011;23379;51.554;6.736;2024-03-08T01:39:51;32.45;;;19.70;;
37535;SDS011;23379;51.554;6.736;2024-03-08T01:42:17;34.55;;;18.35;;
37535;SDS011;23379;51.554;6.736;2024-03-08T01:44:42;29.80;;;18.33;;
37535;SDS011;23379;51.554;6.736;2024-03-08T01:47:09;30.92;;;18.73;;
37535;SDS011;23379;51.554;6.736;2024-03-08T01:49:36;34.33;;;19.08;;
37535;SDS011;23379;51.554;6.736;2024-03-08T01:52:02;29.10;;;18.48;;
37535;SDS011;23379;51.554;6.736;2024-03-08T01:54:28;32.67;;;19.17;;
37535;SDS011;23379;51.554;6.736;2024-03-08T01:56:55;31.15;;;18.58;;
37535;SDS011;23379;51.554;6.736;2024-03-08T01:59:23;34.70;;;19.98;;
37535;SDS011;23379;51.554;6.736;2024-03-08T02:01:49;29.95;;;18.50;;
37535;SDS011;23379;51.554;6.736;2024-03-08T02:04:16;30.45;;;18.83;;
37535;SDS011;23379;51.554;6.736;2024-03-08T02:06:41;33.92;;;18.75;;
37535;SDS011;23379;51.554;6.736;2024-03-08T02:09:07;32.00;;;19.52;;
37535;SDS011;23379;51.554;6.736;2024-03-08T02:11:33;32.50;;;19.20;;
37535;SDS011;23379;51.554;6.736;2024-03-08T02:13:59;33.05;;;18.60;;
37535;SDS011;23379;51.554;6.736;2024-03-08T02:16:24;36.22;;;18.92;;
37535;SDS011;23379;51.554;6.736;2024-03-08T02:18:50;34.38;;;19.67;;
37535;SDS011;23379;51.554;6.736;2024-03-08T02:21:16;31.45;;;18.88;;
37535;SDS011;23379;51.554;6.736;2024-03-08T02:23:43;38.08;;;19.00;;
37535;SDS011;23379;51.554;6.736;2024-03-08T02:26:08;35.72;;;19.70;;
37535;SDS011;23379;51.554;6.736;2024-03-08T02:28:34;37.03;;;19.75;;
37535;SDS011;23379;51.554;6.736;2024-03-08T02:31:00;31.02;;;19.90;;
37535;SDS011;23379;51.554;6.736;2024-03-08T02:33:26;33.97;;;20.23;;
37535;SDS011;23379;51.554;6.736;2024-03-08T02:35:52;33.97;;;20.20;;
37535;SDS011;23379;51.554;6.736;2024-03-08T02:38:18;34.28;;;20.13;;
37535;SDS011;23379;51.554;6.736;2024-03-08T02:40:45;36.92;;;19.25;;
37535;SDS011;23379;51.554;6.736;2024-03-08T02:43:12;30.15;;;18.63;;
37535;SDS011;23379;51.554;6.736;2024-03-08T02:45:38;33.63;;;19.80;;
37535;SDS011;23379;51.554;6.736;2024-03-08T02:48:03;32.80;;;19.77;;
37535;SDS011;23379;51.554;6.736;2024-03-08T02:50:31;34.53;;;20.77;;
37535;SDS011;23379;51.554;6.736;2024-03-08T02:52:57;35.97;;;20.73;;
37535;SDS011;23379;51.554;6.736;2024-03-08T02:55:22;31.15;;;19.17;;
37535;SDS011;23379;51.554;6.736;2024-03-08T02:57:47;31.90;;;19.15;;
37535;SDS011;23379;51.554;6.736;2024-03-08T03:00:13;34.67;;;20.00;;
37535;SDS011;23379;51.554;6.736;2024-03-08T03:02:39;39.88;;;19.88;;
37535;SDS011;23379;51.554;6.736;2024-03-08T03:05:04;36.53;;;19.45;;
37535;SDS011;23379;51.554;6.736;2024-03-08T03:07:34;30.92;;;19.77;;
37535;SDS011;23379;51.554;6.736;2024-03-08T03:09:59;34.15;;;19.98;;
37535;SDS011;23379;51.554;6.736;2024-03-08T03:12:26;36.42;;;19.95;;
37535;SDS011;23379;51.554;6.736;2024-03-08T03:14:52;36.53;;;20.08;;
37535;SDS011;23379;51.554;6.736;2024-03-08T03:17:17;34.95;;;20.10;;
37535;SDS011;23379;51.554;6.736;2024-03-08T03:19:43;32.85;;;19.70;;
37535;SDS011;23379;51.554;6.736;2024-03-08T03:22:08;34.45;;;19.65;;
37535;SDS011;23379;51.554;6.736;2024-03-08T03:24:35;34.03;;;19.50;;
37535;SDS011;23379;51.554;6.736;2024-03-08T03:27:03;37.15;;;20.35;;
37535;SDS011;23379;51.554;6.736;2024-03-08T03:29:36;35.85;;;20.08;;
37535;SDS011;23379;51.554;6.736;2024-03-08T03:32:02;32.95;;;18.73;;
37535;SDS011;23379;51.554;6.736;2024-03-08T03:34:29;34.83;;;19.77;;
37535;SDS011;23379;51.554;6.736;2024-03-08T03:36:54;39.13;;;19.08;;
37535;SDS011;23379;51.554;6.736;2024-03-08T03:39:20;36.70;;;19.63;;
37535;SDS011;23379;51.554;6.736;2024-03-08T03:41:47;41.08;;;21.17;;
37535;SDS011;23379;51.554;6.736;2024-03-08T03:44:17;39.88;;;19.88;;
37535;SDS011;23379;51.554;6.736;2024-03-08T03:46:43;38.88;;;20.35;;
37535;SDS011;23379;51.554;6.736;2024-03-08T03:49:11;34.85;;;20.52;;
37535;SDS011;23379;51.554;6.736;2024-03-08T03:51:37;35.65;;;20.50;;
37535;SDS011;23379;51.554;6.736;2024-03-08T03:54:02;34.53;;;19.63;;
37535;SDS011;23379;51.554;6.736;2024-03-08T03:56:28;36.55;;;20.90;;
37535;SDS011;23379;51.554;6.736;2024-03-08T03:58:55;34.40;;;19.73;;
37535;SDS011;23379;51.554;6.736;2024-03-08T04:01:21;35.22;;;19.77;;
37535;SDS011;23379;51.554;6.736;2024-03-08T04:03:46;35.78;;;20.05;;
37535;SDS011;23379;51.554;6.736;2024-03-08T04:06:12;34.15;;;20.55;;
37535;SDS011;23379;51.554;6.736;2024-03-08T04:08:37;33.38;;;20.45;;
37535;SDS011;23379;51.554;6.736;2024-03-08T04:11:03;35.20;;;19.98;;
37535;SDS011;23379;51.554;6.736;2024-03-08T04:13:28;34.65;;;19.85;;
37535;SDS011;23379;51.554;6.736;2024-03-08T04:15:54;35.35;;;20.13;;
37535;SDS011;23379;51.554;6.736;2024-03-08T04:18:19;35.10;;;20.40;;
37535;SDS011;23379;51.554;6.736;2024-03-08T04:20:45;35.72;;;21.02;;
37535;SDS011;23379;51.554;6.736;2024-03-08T04:23:10;38.75;;;20.38;;
37535;SDS011;23379;51.554;6.736;2024-03-08T04:25:36;40.47;;;21.20;;
37535;SDS011;23379;51.554;6.736;2024-03-08T04:28:01;40.05;;;22.35;;
37535;SDS011;23379;51.554;6.736;2024-03-08T04:30:26;36.70;;;20.80;;
37535;SDS011;23379;51.554;6.736;2024-03-08T04:32:53;36.20;;;20.95;;
37535;SDS011;23379;51.554;6.736;2024-03-08T04:35:19;38.65;;;21.55;;
37535;SDS011;23379;51.554;6.736;2024-03-08T04:37:45;42.97;;;20.95;;
37535;SDS011;23379;51.554;6.736;2024-03-08T04:40:11;34.72;;;21.05;;
37535;SDS011;23379;51.554;6.736;2024-03-08T04:42:37;38.55;;;19.55;;
37535;SDS011;23379;51.554;6.736;2024-03-08T04:45:03;40.08;;;21.27;;
37535;SDS011;23379;51.554;6.736;2024-03-08T04:47:29;35.85;;;21.05;;
37535;SDS011;23379;51.554;6.736;2024-03-08T04:49:54;38.72;;;20.15;;
37535;SDS011;23379;51.554;6.736;2024-03-08T04:52:21;37.90;;;20.70;;
37535;SDS011;23379;51.554;6.736;2024-03-08T04:54:47;39.22;;;20.63;;
37535;SDS011;23379;51.554;6.736;2024-03-08T04:57:12;41.15;;;21.77;;
37535;SDS011;23379;51.554;6.736;2024-03-08T04:59:38;38.65;;;21.13;;
37535;SDS011;23379;51.554;6.736;2024-03-08T05:02:03;38.10;;;21.67;;
37535;SDS011;23379;51.554;6.736;2024-03-08T05:04:28;42.60;;;20.90;;
37535;SDS011;23379;51.554;6.736;2024-03-08T05:06:54;39.03;;;21.02;;
37535;SDS011;23379;51.554;6.736;2024-03-08T05:09:19;41.25;;;23.30;;
37535;SDS011;23379;51.554;6.736;2024-03-08T05:11:45;37.38;;;21.95;;
37535;SDS011;23379;51.554;6.736;2024-03-08T05:14:15;37.03;;;21.73;;
37535;SDS011;23379;51.554;6.736;2024-03-08T05:16:45;39.42;;;21.85;;
37535;SDS011;23379;51.554;6.736;2024-03-08T05:19:13;43.78;;;22.85;;
37535;SDS011;23379;51.554;6.736;2024-03-08T05:21:41;43.63;;;21.40;;
37535;SDS011;23379;51.554;6.736;2024-03-08T05:24:08;43.97;;;21.15;;
37535;SDS011;23379;51.554;6.736;2024-03-08T05:26:35;38.63;;;20.98;;
37535;SDS011;23379;51.554;6.736;2024-03-08T05:29:00;39.70;;;21.20;;
37535;SDS011;23379;51.554;6.736;2024-03-08T05:31:25;39.15;;;20.83;;
37535;SDS011;23379;51.554;6.736;2024-03-08T05:33:51;36.40;;;21.15;;
37535;SDS011;23379;51.554;6.736;2024-03-08T05:36:16;45.58;;;22.63;;
37535;SDS011;23379;51.554;6.736;2024-03-08T05:38:42;43.00;;;21.98;;
37535;SDS011;23379;51.554;6.736;2024-03-08T05:41:08;38.25;;;21.85;;
37535;SDS011;23379;51.554;6.736;2024-03-08T05:43:40;43.25;;;22.63;;
37535;SDS011;23379;51.554;6.736;2024-03-08T05:46:05;44.15;;;22.38;;
37535;SDS011;23379;51.554;6.736;2024-03-08T05:48:31;41.42;;;21.67;;
37535;SDS011;23379;51.554;6.736;2024-03-08T05:51:02;40.22;;;22.13;;
37535;SDS011;23379;51.554;6.736;2024-03-08T05:53:27;38.83;;;22.48;;
37535;SDS011;23379;51.554;6.736;2024-03-08T05:55:56;43.88;;;22.00;;
37535;SDS011;23379;51.554;6.736;2024-03-08T05:58:22;40.17;;;21.88;;
37535;SDS011;23379;51.554;6.736;2024-03-08T06:00:47;41.53;;;21.33;;
37535;SDS011;23379;51.554;6.736;2024-03-08T06:03:13;40.28;;;22.15;;
37535;SDS011;23379;51.554;6.736;2024-03-08T06:05:38;41.03;;;22.55;;
37535;SDS011;23379;51.554;6.736;2024-03-08T06:08:07;45.88;;;23.33;;
37535;SDS011;23379;51.554;6.736;2024-03-08T06:10:32;44.17;;;22.92;;
37535;SDS011;23379;51.554;6.736;2024-03-08T06:12:58;40.75;;;22.35;;
37535;SDS011;23379;51.554;6.736;2024-03-08T06:15:23;42.97;;;22.83;;
37535;SDS011;23379;51.554;6.736;2024-03-08T06:17:49;38.80;;;22.27;;
37535;SDS011;23379;51.554;6.736;2024-03-08T06:20:14;41.28;;;22.90;;
37535;SDS011;23379;51.554;6.736;2024-03-08T06:22:40;42.50;;;21.73;;
37535;SDS011;23379;51.554;6.736;2024-03-08T06:25:10;38.95;;;22.88;;
37535;SDS011;23379;51.554;6.736;2024-03-08T06:27:39;40.67;;;22.48;;
37535;SDS011;23379;51.554;6.736;2024-03-08T06:30:06;41.97;;;22.27;;
37535;SDS011;23379;51.554;6.736;2024-03-08T06:32:31;40.70;;;22.30;;
37535;SDS011;23379;51.554;6.736;2024-03-08T06:35:00;44.80;;;23.13;;
37535;SDS011;23379;51.554;6.736;2024-03-08T06:37:32;41.38;;;23.00;;
37535;SDS011;23379;51.554;6.736;2024-03-08T06:39:58;41.90;;;22.63;;
37535;SDS011;23379;51.554;6.736;2024-03-08T06:42:25;43.53;;;23.50;;
37535;SDS011;23379;51.554;6.736;2024-03-08T06:44:51;38.67;;;22.30;;
37535;SDS011;23379;51.554;6.736;2024-03-08T06:47:16;43.50;;;22.27;;
37535;SDS011;23379;51.554;6.736;2024-03-08T06:49:42;43.60;;;22.48;;
37535;SDS011;23379;51.554;6.736;2024-03-08T06:52:08;40.85;;;21.40;;
37535;SDS011;23379;51.554;6.736;2024-03-08T06:54:34;45.78;;;22.67;;
37535;SDS011;23379;51.554;6.736;2024-03-08T06:57:03;44.58;;;23.30;;
37535;SDS011;23379;51.554;6.736;2024-03-08T06:59:30;47.97;;;23.52;;
37535;SDS011;23379;51.554;6.736;2024-03-08T07:01:55;45.28;;;23.48;;
37535;SDS011;23379;51.554;6.736;2024-03-08T07:04:20;42.92;;;24.02;;
37535;SDS011;23379;51.554;6.736;2024-03-08T07:06:47;40.15;;;22.33;;
37535;SDS011;23379;51.554;6.736;2024-03-08T07:09:14;43.47;;;22.70;;
37535;SDS011;23379;51.554;6.736;2024-03-08T07:11:41;40.38;;;22.15;;
37535;SDS011;23379;51.554;6.736;2024-03-08T07:14:07;37.05;;;20.73;;
37535;SDS011;23379;51.554;6.736;2024-03-08T07:16:33;44.40;;;23.02;;
37535;SDS011;23379;51.554;6.736;2024-03-08T07:19:00;46.00;;;23.88;;
37535;SDS011;23379;51.554;6.736;2024-03-08T07:21:26;41.25;;;23.70;;
37535;SDS011;23379;51.554;6.736;2024-03-08T07:23:51;40.90;;;22.98;;
37535;SDS011;23379;51.554;6.736;2024-03-08T07:26:43;39.97;;;22.85;;
37535;SDS011;23379;51.554;6.736;2024-03-08T07:29:09;40.95;;;22.70;;
37535;SDS011;23379;51.554;6.736;2024-03-08T07:31:34;34.60;;;21.17;;
37535;SDS011;23379;51.554;6.736;2024-03-08T07:34:02;43.58;;;22.13;;
37535;SDS011;23379;51.554;6.736;2024-03-08T07:36:28;43.45;;;23.45;;
37535;SDS011;23379;51.554;6.736;2024-03-08T07:38:53;41.95;;;22.35;;
37535;SDS011;23379;51.554;6.736;2024-03-08T07:41:19;38.95;;;21.52;;
37535;SDS011;23379;51.554;6.736;2024-03-08T07:43:45;39.85;;;22.75;;
37535;SDS011;23379;51.554;6.736;2024-03-08T07:46:10;38.00;;;21.65;;
37535;SDS011;23379;51.554;6.736;2024-03-08T07:48:36;35.72;;;21.13;;
37535;SDS011;23379;51.554;6.736;2024-03-08T07:51:05;39.75;;;21.75;;
37535;SDS011;23379;51.554;6.736;2024-03-08T07:53:30;42.38;;;21.52;;
37535;SDS011;23379;51.554;6.736;2024-03-08T07:55:56;33.38;;;19.40;;
37535;SDS011;23379;51.554;6.736;2024-03-08T07:58:21;34.22;;;20.45;;
37535;SDS011;23379;51.554;6.736;2024-03-08T08:00:46;37.15;;;21.15;;
37535;SDS011;23379;51.554;6.736;2024-03-08T08:03:12;38.30;;;21.38;;
37535;SDS011;23379;51.554;6.736;2024-03-08T08:05:37;35.55;;;20.80;;
37535;SDS011;23379;51.554;6.736;2024-03-08T08:08:04;36.72;;;19.17;;
37535;SDS011;23379;51.554;6.736;2024-03-08T08:10:31;31.00;;;19.50;;
37535;SDS011;23379;51.554;6.736;2024-03-08T08:12:57;31.52;;;19.38;;
37535;SDS011;23379;51.554;6.736;2024-03-08T08:15:23;32.78;;;19.33;;
37535;SDS011;23379;51.554;6.736;2024-03-08T08:17:48;32.67;;;20.45;;
37535;SDS011;23379;51.554;6.736;2024-03-08T08:20:14;29.38;;;19.08;;
37535;SDS011;23379;51.554;6.736;2024-03-08T08:22:41;31.50;;;18.63;;
37535;SDS011;23379;51.554;6.736;2024-03-08T08:25:08;29.65;;;19.85;;
37535;SDS011;23379;51.554;6.736;2024-03-08T08:27:33;32.05;;;18.80;;
37535;SDS011;23379;51.554;6.736;2024-03-08T08:30:01;30.83;;;18.40;;
37535;SDS011;23379;51.554;6.736;2024-03-08T08:32:32;26.77;;;18.08;;
37535;SDS011;23379;51.554;6.736;2024-03-08T08:34:58;28.70;;;17.90;;
37535;SDS011;23379;51.554;6.736;2024-03-08T08:37:24;26.23;;;17.33;;
37535;SDS011;23379;51.554;6.736;2024-03-08T08:39:49;29.02;;;17.92;;
37535;SDS011;23379;51.554;6.736;2024-03-08T08:42:16;28.55;;;17.80;;
37535;SDS011;23379;51.554;6.736;2024-03-08T08:44:42;26.60;;;16.65;;
37535;SDS011;23379;51.554;6.736;2024-03-08T08:47:08;29.23;;;17.65;;
37535;SDS011;23379;51.554;6.736;2024-03-08T08:49:33;26.58;;;17.13;;
37535;SDS011;23379;51.554;6.736;2024-03-08T08:51:58;29.20;;;17.10;;
37535;SDS011;23379;51.554;6.736;2024-03-08T08:54:24;23.63;;;15.73;;
37535;SDS011;23379;51.554;6.736;2024-03-08T08:56:50;27.02;;;16.35;;
37535;SDS011;23379;51.554;6.736;2024-03-08T08:59:16;23.90;;;15.93;;
37535;SDS011;23379;51.554;6.736;2024-03-08T09:01:44;27.60;;;16.45;;
37535;SDS011;23379;51.554;6.736;2024-03-08T09:04:12;24.13;;;16.50;;
37535;SDS011;23379;51.554;6.736;2024-03-08T09:06:37;27.95;;;16.90;;
37535;SDS011;23379;51.554;6.736;2024-03-08T09:09:03;23.25;;;15.15;;
37535;SDS011;23379;51.554;6.736;2024-03-08T09:11:30;24.30;;;15.32;;
37535;SDS011;23379;51.554;6.736;2024-03-08T09:13:55;34.00;;;15.77;;
37535;SDS011;23379;51.554;6.736;2024-03-08T09:16:20;25.45;;;15.75;;
37535;SDS011;23379;51.554;6.736;2024-03-08T09:18:46;22.00;;;15.10;;
37535;SDS011;23379;51.554;6.736;2024-03-08T09:21:13;29.83;;;15.05;;
37535;SDS011;23379;51.554;6.736;2024-03-08T09:23:39;25.85;;;16.10;;
37535;SDS011;23379;51.554;6.736;2024-03-08T09:26:05;23.25;;;14.93;;
37535;SDS011;23379;51.554;6.736;2024-03-08T09:28:34;24.15;;;15.95;;
37535;SDS011;23379;51.554;6.736;2024-03-08T09:31:02;20.95;;;14.43;;
37535;SDS011;23379;51.554;6.736;2024-03-08T09:33:28;24.55;;;15.43;;
37535;SDS011;23379;51.554;6.736;2024-03-08T09:35:53;23.77;;;13.88;;
37535;SDS011;23379;51.554;6.736;2024-03-08T09:38:19;21.48;;;14.77;;
37535;SDS011;23379;51.554;6.736;2024-03-08T09:40:45;22.48;;;15.20;;
37535;SDS011;23379;51.554;6.736;2024-03-08T09:43:11;19.85;;;14.52;;
37535;SDS011;23379;51.554;6.736;2024-03-08T09:45:39;25.08;;;15.82;;
37535;SDS011;23379;51.554;6.736;2024-03-08T09:48:15;23.83;;;14.85;;
37535;SDS011;23379;51.554;6.736;2024-03-08T09:50:42;24.63;;;15.88;;
37535;SDS011;23379;51.554;6.736;2024-03-08T09:53:08;24.48;;;15.15;;
37535;SDS011;23379;51.554;6.736;2024-03-08T09:55:37;20.38;;;14.52;;
37535;SDS011;23379;51.554;6.736;2024-03-08T09:58:07;21.80;;;14.63;;
37535;SDS011;23379;51.554;6.736;2024-03-08T10:00:51;21.00;;;14.27;;
37535;SDS011;23379;51.554;6.736;2024-03-08T10:03:17;22.38;;;14.77;;
37535;SDS011;23379;51.554;6.736;2024-03-08T10:05:44;22.13;;;14.63;;
37535;SDS011;23379;51.554;6.736;2024-03-08T10:08:09;24.92;;;16.10;;
37535;SDS011;23379;51.554;6.736;2024-03-08T10:10:35;24.73;;;15.27;;
37535;SDS011;23379;51.554;6.736;2024-03-08T10:13:02;28.98;;;14.75;;
37535;SDS011;23379;51.554;6.736;2024-03-08T10:15:31;24.48;;;14.93;;
37535;SDS011;23379;51.554;6.736;2024-03-08T10:17:59;24.80;;;15.50;;
37535;SDS011;23379;51.554;6.736;2024-03-08T10:20:27;21.55;;;14.43;;
37535;SDS011;23379;51.554;6.736;2024-03-08T10:22:53;24.02;;;15.80;;
37535;SDS011;23379;51.554;6.736;2024-03-08T10:25:19;21.77;;;15.30;;
37535;SDS011;23379;51.554;6.736;2024-03-08T10:27:44;23.83;;;15.07;;
37535;SDS011;23379;51.554;6.736;2024-03-08T10:30:10;24.83;;;14.98;;
37535;SDS011;23379;51.554;6.736;2024-03-08T10:32:39;25.92;;;15.88;;
37535;SDS011;23379;51.554;6.736;2024-03-08T10:35:06;25.23;;;15.75;;
37535;SDS011;23379;51.554;6.736;2024-03-08T10:37:53;28.63;;;17.83;;
37535;SDS011;23379;51.554;6.736;2024-03-08T10:40:25;31.58;;;15.98;;
37535;SDS011;23379;51.554;6.736;2024-03-08T10:42:58;23.60;;;14.93;;
37535;SDS011;23379;51.554;6.736;2024-03-08T10:45:37;21.88;;;14.85;;
37535;SDS011;23379;51.554;6.736;2024-03-08T10:50:48;22.25;;;14.13;;
37535;SDS011;23379;51.554;6.736;2024-03-08T10:53:15;23.13;;;13.75;;
37535;SDS011;23379;51.554;6.736;2024-03-08T10:55:43;24.20;;;14.13;;
37535;SDS011;23379;51.554;6.736;2024-03-08T10:58:09;21.48;;;13.85;;
37535;SDS011;23379;51.554;6.736;2024-03-08T11:00:35;23.65;;;15.02;;
37535;SDS011;23379;51.554;6.736;2024-03-08T11:03:02;24.10;;;15.07;;
37535;SDS011;23379;51.554;6.736;2024-03-08T11:08:16;20.38;;;14.65;;
37535;SDS011;23379;51.554;6.736;2024-03-08T11:11:02;20.38;;;14.68;;
37535;SDS011;23379;51.554;6.736;2024-03-08T11:13:37;22.08;;;14.05;;
37535;SDS011;23379;51.554;6.736;2024-03-08T11:16:09;25.20;;;14.43;;
37535;SDS011;23379;51.554;6.736;2024-03-08T11:18:35;22.55;;;14.68;;
37535;SDS011;23379;51.554;6.736;2024-03-08T11:21:03;23.30;;;13.98;;
37535;SDS011;23379;51.554;6.736;2024-03-08T11:23:32;20.77;;;14.25;;
37535;SDS011;23379;51.554;6.736;2024-03-08T11:25:58;19.85;;;13.98;;
37535;SDS011;23379;51.554;6.736;2024-03-08T11:28:24;21.98;;;13.70;;
37535;SDS011;23379;51.554;6.736;2024-03-08T11:33:24;21.27;;;14.75;;
37535;SDS011;23379;51.554;6.736;2024-03-08T11:35:51;23.52;;;14.07;;
37535;SDS011;23379;51.554;6.736;2024-03-08T11:38:17;18.55;;;13.93;;
37535;SDS011;23379;51.554;6.736;2024-03-08T11:40:44;18.58;;;13.38;;
37535;SDS011;23379;51.554;6.736;2024-03-08T11:43:15;25.95;;;14.23;;
37535;SDS011;23379;51.554;6.736;2024-03-08T11:45:41;22.25;;;15.10;;
37535;SDS011;23379;51.554;6.736;2024-03-08T11:48:06;21.80;;;14.88;;
37535;SDS011;23379;51.554;6.736;2024-03-08T11:50:31;21.42;;;13.85;;
37535;SDS011;23379;51.554;6.736;2024-03-08T11:53:04;19.52;;;13.48;;
37535;SDS011;23379;51.554;6.736;2024-03-08T11:55:31;21.65;;;13.57;;
37535;SDS011;23379;51.554;6.736;2024-03-08T11:58:03;22.20;;;14.68;;
37535;SDS011;23379;51.554;6.736;2024-03-08T12:00:30;18.38;;;13.73;;
37535;SDS011;23379;51.554;6.736;2024-03-08T12:03:07;21.90;;;14.48;;
37535;SDS011;23379;51.554;6.736;2024-03-08T12:05:37;20.27;;;13.93;;
37535;SDS011;23379;51.554;6.736;2024-03-08T12:08:03;21.23;;;15.18;;
37535;SDS011;23379;51.554;6.736;2024-03-08T12:10:30;23.15;;;14.35;;
37535;SDS011;23379;51.554;6.736;2024-03-08T12:16:17;20.30;;;13.45;;
37535;SDS011;23379;51.554;6.736;2024-03-08T12:18:44;21.65;;;14.35;;
37535;SDS011;23379;51.554;6.736;2024-03-08T12:21:10;18.42;;;13.13;;
37535;SDS011;23379;51.554;6.736;2024-03-08T12:23:37;21.42;;;13.75;;
37535;SDS011;23379;51.554;6.736;2024-03-08T12:26:13;18.17;;;13.73;;
37535;SDS011;23379;51.554;6.736;2024-03-08T12:28:41;23.80;;;14.93;;
37535;SDS011;23379;51.554;6.736;2024-03-08T12:31:08;23.30;;;13.63;;
37535;SDS011;23379;51.554;6.736;2024-03-08T12:33:37;19.60;;;13.63;;
37535;SDS011;23379;51.554;6.736;2024-03-08T12:36:13;19.20;;;13.15;;
37535;SDS011;23379;51.554;6.736;2024-03-08T12:38:40;17.98;;;12.65;;
37535;SDS011;23379;51.554;6.736;2024-03-08T12:41:05;17.65;;;12.70;;
37535;SDS011;23379;51.554;6.736;2024-03-08T12:43:30;19.80;;;14.27;;
37535;SDS011;23379;51.554;6.736;2024-03-08T12:45:56;20.63;;;13.50;;
37535;SDS011;23379;51.554;6.736;2024-03-08T12:48:22;21.52;;;14.10;;
37535;SDS011;23379;51.554;6.736;2024-03-08T12:50:47;23.20;;;14.73;;
37535;SDS011;23379;51.554;6.736;2024-03-08T12:53:13;21.27;;;13.38;;
37535;SDS011;23379;51.554;6.736;2024-03-08T12:55:39;21.40;;;13.82;;
37535;SDS011;23379;51.554;6.736;2024-03-08T12:58:08;16.60;;;12.68;;
37535;SDS011;23379;51.554;6.736;2024-03-08T13:00:34;21.15;;;13.00;;
37535;SDS011;23379;51.554;6.736;2024-03-08T13:03:02;17.58;;;12.18;;
37535;SDS011;23379;51.554;6.736;2024-03-08T13:05:27;20.65;;;12.60;;
37535;SDS011;23379;51.554;6.736;2024-03-08T13:07:53;18.30;;;13.05;;
37535;SDS011;23379;51.554;6.736;2024-03-08T13:10:20;20.30;;;11.80;;
37535;SDS011;23379;51.554;6.736;2024-03-08T13:12:45;20.58;;;12.95;;
37535;SDS011;23379;51.554;6.736;2024-03-08T13:15:10;18.05;;;12.40;;
37535;SDS011;23379;51.554;6.736;2024-03-08T13:17:40;19.70;;;13.35;;
37535;SDS011;23379;51.554;6.736;2024-03-08T13:20:07;17.27;;;12.10;;
37535;SDS011;23379;51.554;6.736;2024-03-08T13:22:33;16.27;;;11.00;;
37535;SDS011;23379;51.554;6.736;2024-03-08T13:24:59;16.70;;;11.85;;
37535;SDS011;23379;51.554;6.736;2024-03-08T13:27:27;19.63;;;12.10;;
37535;SDS011;23379;51.554;6.736;2024-03-08T13:29:53;16.27;;;11.73;;
37535;SDS011;23379;51.554;6.736;2024-03-08T13:32:18;16.65;;;12.07;;
37535;SDS011;23379;51.554;6.736;2024-03-08T13:34:45;15.95;;;11.15;;
37535;SDS011;23379;51.554;6.736;2024-03-08T13:37:12;18.60;;;11.45;;
37535;SDS011;23379;51.554;6.736;2024-03-08T13:39:41;17.08;;;11.63;;
37535;SDS011;23379;51.554;6.736;2024-03-08T13:42:11;16.75;;;11.07;;
37535;SDS011;23379;51.554;6.736;2024-03-08T13:44:47;19.20;;;11.10;;
37535;SDS011;23379;51.554;6.736;2024-03-08T13:47:14;18.17;;;11.27;;
37535;SDS011;23379;51.554;6.736;2024-03-08T13:49:43;15.98;;;10.77;;
37535;SDS011;23379;51.554;6.736;2024-03-08T13:52:12;18.80;;;10.43;;
37535;SDS011;23379;51.554;6.736;2024-03-08T13:54:41;13.82;;;9.68;;
37535;SDS011;23379;51.554;6.736;2024-03-08T13:57:07;14.55;;;10.32;;
37535;SDS011;23379;51.554;6.736;2024-03-08T13:59:32;16.33;;;9.57;;
37535;SDS011;23379;51.554;6.736;2024-03-08T14:02:00;16.08;;;9.73;;
37535;SDS011;23379;51.554;6.736;2024-03-08T14:04:27;11.93;;;8.65;;
37535;SDS011;23379;51.554;6.736;2024-03-08T14:06:55;14.30;;;8.57;;
37535;SDS011;23379;51.554;6.736;2024-03-08T14:09:28;11.80;;;7.90;;
37535;SDS011;23379;51.554;6.736;2024-03-08T14:11:55;14.82;;;8.13;;
37535;SDS011;23379;51.554;6.736;2024-03-08T14:14:21;10.65;;;8.02;;
37535;SDS011;23379;51.554;6.736;2024-03-08T14:16:48;9.40;;;7.00;;
37535;SDS011;23379;51.554;6.736;2024-03-08T14:19:14;11.05;;;6.78;;
37535;SDS011;23379;51.554;6.736;2024-03-08T14:21:40;12.35;;;7.38;;
37535;SDS011;23379;51.554;6.736;2024-03-08T14:24:07;12.27;;;7.53;;
37535;SDS011;23379;51.554;6.736;2024-03-08T14:26:32;14.25;;;7.95;;
37535;SDS011;23379;51.554;6.736;2024-03-08T14:28:59;13.88;;;8.25;;
37535;SDS011;23379;51.554;6.736;2024-03-08T14:31:31;11.93;;;8.20;;